createdAt,value
2022-12-17T00:00:40.014Z,100.00
2022-12-17T00:02:00.174Z,100.00
2022-12-17T00:03:20.629Z,100.00
2022-12-17T00:04:48.483Z,100.00
2022-12-17T00:06:10.970Z,100.00
2022-12-17T00:07:31.282Z,100.00
2022-12-17T00:08:51.186Z,100.00
2022-12-17T00:10:17.830Z,100.00
2022-12-17T00:11:37.747Z,100.00
2022-12-17T00:12:57.594Z,100.00
2022-12-17T00:14:17.947Z,100.00
2022-12-17T00:15:37.722Z,100.00
2022-12-17T00:16:57.662Z,100.00
2022-12-17T00:18:25.464Z,100.00
2022-12-17T00:19:45.390Z,100.00
2022-12-17T00:21:17.461Z,100.00
2022-12-17T00:22:37.441Z,100.00
2022-12-17T00:23:57.606Z,100.00
2022-12-17T00:25:17.371Z,100.00
2022-12-17T00:26:39.113Z,100.00
2022-12-17T00:27:59.842Z,100.00
2022-12-17T00:29:19.731Z,100.00
2022-12-17T00:30:39.626Z,100.00
2022-12-17T00:31:59.664Z,100.00
2022-12-17T00:33:19.449Z,100.00
2022-12-17T00:34:39.430Z,100.00
2022-12-17T00:35:59.687Z,100.00
2022-12-17T00:37:19.993Z,100.00
2022-12-17T00:38:47.969Z,100.00
2022-12-17T00:40:07.707Z,100.00
2022-12-17T00:41:27.469Z,100.00
2022-12-17T00:42:47.311Z,100.00
2022-12-17T00:44:07.742Z,100.00
2022-12-17T00:45:28.272Z,100.00
2022-12-17T00:46:48.759Z,100.00
2022-12-17T00:48:08.651Z,100.00
2022-12-17T00:49:28.465Z,100.00
2022-12-17T00:50:48.098Z,100.00
2022-12-17T00:52:07.955Z,100.00
2022-12-17T00:53:28.867Z,100.00
2022-12-17T00:54:48.708Z,100.00
2022-12-17T00:56:08.722Z,100.00
2022-12-17T00:57:29.726Z,100.00
2022-12-17T00:58:50.156Z,100.00
2022-12-17T01:00:10.058Z,100.00
2022-12-17T01:01:30.381Z,100.00
2022-12-17T01:02:50.585Z,100.00
2022-12-17T01:04:10.706Z,100.00
2022-12-17T01:05:32.181Z,100.00
2022-12-17T01:06:53.151Z,100.00
2022-12-17T01:08:13.861Z,100.00
2022-12-17T01:09:33.757Z,100.00
2022-12-17T01:10:54.612Z,100.00
2022-12-17T01:12:16.437Z,100.00
2022-12-17T01:13:37.594Z,100.00
2022-12-17T01:14:57.692Z,100.00
2022-12-17T01:16:41.842Z,100.00
2022-12-17T01:18:02.003Z,100.00
2022-12-17T01:19:22.083Z,100.00
2022-12-17T01:20:42.405Z,100.00
2022-12-17T01:22:04.151Z,100.00
2022-12-17T01:23:26.979Z,100.00
2022-12-17T01:24:47.521Z,100.00
2022-12-17T01:26:15.438Z,100.00
2022-12-17T01:27:35.874Z,100.00
2022-12-17T01:28:55.794Z,100.00
2022-12-17T01:30:16.605Z,100.00
2022-12-17T01:31:36.973Z,100.00
2022-12-17T01:32:57.127Z,100.00
2022-12-17T01:34:17.192Z,100.00
2022-12-17T01:35:37.540Z,100.00
2022-12-17T01:36:57.337Z,100.00
2022-12-17T01:38:17.196Z,100.00
2022-12-17T01:39:36.973Z,100.00
2022-12-17T01:40:57.131Z,100.00
2022-12-17T01:42:16.958Z,100.00
2022-12-17T01:43:54.912Z,100.00
2022-12-17T01:45:15.362Z,100.00
2022-12-17T01:46:36.193Z,100.00
2022-12-17T01:48:07.837Z,100.00
2022-12-17T01:49:29.088Z,100.00
2022-12-17T01:50:53.067Z,100.00
2022-12-17T01:52:13.853Z,100.00
2022-12-17T01:53:37.010Z,100.00
2022-12-17T01:54:58.515Z,100.00
2022-12-17T01:56:18.956Z,100.00
2022-12-17T01:57:39.391Z,100.00
2022-12-17T01:59:00.222Z,100.00
2022-12-17T02:00:25.431Z,100.00
2022-12-17T02:01:46.594Z,100.00
2022-12-17T02:03:06.854Z,100.00
2022-12-17T02:04:27.988Z,100.00
2022-12-17T02:06:00.361Z,100.00
2022-12-17T02:07:52.138Z,100.00
2022-12-17T02:09:31.351Z,100.00
2022-12-17T02:11:03.054Z,100.00
2022-12-17T02:12:35.723Z,100.00
2022-12-17T02:14:00.600Z,100.00
2022-12-17T02:15:37.743Z,100.00
2022-12-17T02:17:09.479Z,100.00
2022-12-17T02:18:36.680Z,100.00
2022-12-17T02:20:17.924Z,100.00
2022-12-17T02:21:40.261Z,100.00
2022-12-17T02:23:27.170Z,100.00
2022-12-17T02:24:54.601Z,100.00
2022-12-17T02:26:56.681Z,100.00
2022-12-17T02:28:16.638Z,100.00
2022-12-17T02:29:40.115Z,100.00
2022-12-17T02:31:00.535Z,100.00
2022-12-17T02:32:22.874Z,100.00
2022-12-17T02:33:43.148Z,100.00
2022-12-17T02:35:05.805Z,100.00
2022-12-17T02:36:26.752Z,100.00
2022-12-17T02:37:47.018Z,100.00
2022-12-17T02:39:07.394Z,100.00
2022-12-17T02:40:27.693Z,100.00
2022-12-17T02:41:51.269Z,100.00
2022-12-17T02:43:11.844Z,100.00
2022-12-17T02:44:35.507Z,100.00
2022-12-17T02:45:55.960Z,100.00
2022-12-17T02:47:17.093Z,100.00
2022-12-17T02:48:37.516Z,100.00
2022-12-17T02:49:57.872Z,100.00
2022-12-17T02:51:18.423Z,100.00
2022-12-17T02:52:39.801Z,100.00
2022-12-17T02:54:02.075Z,100.00
2022-12-17T02:55:23.446Z,100.00
2022-12-17T02:56:43.368Z,100.00
2022-12-17T02:58:03.449Z,100.00
2022-12-17T02:59:23.287Z,100.00
2022-12-17T03:00:43.363Z,100.00
2022-12-17T03:02:03.958Z,100.00
2022-12-17T03:03:24.225Z,100.00
2022-12-17T03:04:44.357Z,100.00
2022-12-17T03:06:04.249Z,100.00
2022-12-17T03:07:24.700Z,100.00
2022-12-17T03:08:44.580Z,100.00
2022-12-17T03:10:04.653Z,100.00
2022-12-17T03:11:24.774Z,100.00
2022-12-17T03:12:44.605Z,100.00
2022-12-17T03:14:04.372Z,100.00
2022-12-17T03:15:25.078Z,100.00
2022-12-17T03:16:45.070Z,100.00
2022-12-17T03:18:05.138Z,100.00
2022-12-17T03:19:25.529Z,100.00
2022-12-17T03:20:45.512Z,100.00
2022-12-17T03:22:05.672Z,100.00
2022-12-17T03:23:29.290Z,100.00
2022-12-17T03:24:49.735Z,100.00
2022-12-17T03:26:10.740Z,100.00
2022-12-17T03:27:31.211Z,100.00
2022-12-17T03:28:58.661Z,100.00
2022-12-17T03:30:19.264Z,100.00
2022-12-17T03:31:39.761Z,100.00
2022-12-17T03:33:00.306Z,100.00
2022-12-17T03:34:20.442Z,100.00
2022-12-17T03:35:40.792Z,100.00
2022-12-17T03:37:00.584Z,100.00
2022-12-17T03:38:20.426Z,100.00
2022-12-17T03:39:40.314Z,100.00
2022-12-17T03:41:00.166Z,100.00
2022-12-17T03:42:33.612Z,100.00
2022-12-17T03:43:53.652Z,100.00
2022-12-17T03:45:13.644Z,100.00
2022-12-17T03:46:33.781Z,100.00
2022-12-17T03:47:53.863Z,100.00
2022-12-17T03:49:13.640Z,100.00
2022-12-17T03:50:33.979Z,100.00
2022-12-17T03:51:54.210Z,100.00
2022-12-17T03:53:14.562Z,100.00
2022-12-17T03:54:34.726Z,100.00
2022-12-17T03:55:54.785Z,100.00
2022-12-17T03:57:16.502Z,100.00
2022-12-17T03:58:36.500Z,100.00
2022-12-17T03:59:56.362Z,100.00
2022-12-17T04:01:16.741Z,100.00
2022-12-17T04:02:36.791Z,100.00
2022-12-17T04:03:57.098Z,100.00
2022-12-17T04:05:20.276Z,100.00
2022-12-17T04:06:57.784Z,100.00
2022-12-17T04:08:17.971Z,100.00
2022-12-17T04:09:38.425Z,100.00
2022-12-17T04:10:58.253Z,100.00
2022-12-17T04:12:18.465Z,100.00
2022-12-17T04:13:41.110Z,100.00
2022-12-17T04:15:01.498Z,100.00
2022-12-17T04:16:21.815Z,100.00
2022-12-17T04:17:42.251Z,100.00
2022-12-17T04:19:02.246Z,100.00
2022-12-17T04:20:23.131Z,100.00
2022-12-17T04:21:43.615Z,100.00
2022-12-17T04:23:06.052Z,100.00
2022-12-17T04:24:25.851Z,100.00
2022-12-17T04:25:45.878Z,100.00
2022-12-17T04:27:06.110Z,100.00
2022-12-17T04:28:26.334Z,100.00
2022-12-17T04:29:47.044Z,100.00
2022-12-17T04:31:07.177Z,100.00
2022-12-17T04:32:32.321Z,100.00
2022-12-17T04:33:55.009Z,100.00
2022-12-17T04:35:15.111Z,100.00
2022-12-17T04:36:35.125Z,100.00
2022-12-17T04:37:55.338Z,100.00
2022-12-17T04:39:15.514Z,100.00
2022-12-17T04:40:36.021Z,100.00
2022-12-17T04:41:59.577Z,100.00
2022-12-17T04:43:30.683Z,100.00
2022-12-17T04:44:51.115Z,100.00
2022-12-17T04:46:11.612Z,100.00
2022-12-17T04:47:31.474Z,100.00
2022-12-17T04:48:51.452Z,100.00
2022-12-17T04:50:11.238Z,100.00
2022-12-17T04:51:31.039Z,100.00
2022-12-17T04:52:51.513Z,100.00
2022-12-17T04:54:11.352Z,100.00
2022-12-17T04:55:31.412Z,100.00
2022-12-17T04:56:51.174Z,100.00
2022-12-17T04:58:10.913Z,100.00
2022-12-17T04:59:30.734Z,100.00
2022-12-17T05:01:07.443Z,100.00
2022-12-17T05:02:27.861Z,100.00
2022-12-17T05:03:48.271Z,100.00
2022-12-17T05:05:08.229Z,100.00
2022-12-17T05:06:28.797Z,100.00
2022-12-17T05:07:48.638Z,100.00
2022-12-17T05:09:08.418Z,100.00
2022-12-17T05:10:28.216Z,100.00
2022-12-17T05:11:48.544Z,100.00
2022-12-17T05:13:16.032Z,100.00
2022-12-17T05:14:36.314Z,100.00
2022-12-17T05:15:56.139Z,100.00
2022-12-17T05:17:16.280Z,100.00
2022-12-17T05:18:36.109Z,100.00
2022-12-17T05:19:56.025Z,100.00
2022-12-17T05:21:16.010Z,100.00
2022-12-17T05:22:36.137Z,100.00
2022-12-17T05:23:56.513Z,100.00
2022-12-17T05:25:16.332Z,100.00
2022-12-17T05:26:41.826Z,100.00
2022-12-17T05:28:01.860Z,100.00
2022-12-17T05:29:22.299Z,100.00
2022-12-17T05:30:42.368Z,100.00
2022-12-17T05:32:02.434Z,100.00
2022-12-17T05:33:22.643Z,100.00
2022-12-17T05:34:43.688Z,100.00
2022-12-17T05:36:03.673Z,100.00
2022-12-17T05:37:23.723Z,100.00
2022-12-17T05:38:43.626Z,100.00
2022-12-17T05:40:07.825Z,100.00
2022-12-17T05:41:30.917Z,100.00
2022-12-17T05:42:51.109Z,100.00
2022-12-17T05:44:11.152Z,100.00
2022-12-17T05:45:31.479Z,100.00
2022-12-17T05:46:51.317Z,100.00
2022-12-17T05:48:29.696Z,100.00
2022-12-17T05:49:49.894Z,100.00
2022-12-17T05:51:10.050Z,100.00
2022-12-17T05:52:30.536Z,100.00
2022-12-17T05:53:50.498Z,100.00
2022-12-17T05:55:10.712Z,100.00
2022-12-17T05:56:30.574Z,100.00
2022-12-17T05:57:54.672Z,100.00
2022-12-17T05:59:16.412Z,100.00
2022-12-17T06:00:36.827Z,100.00
2022-12-17T06:01:56.841Z,100.00
2022-12-17T06:03:21.981Z,100.00
2022-12-17T06:04:42.285Z,100.00
2022-12-17T06:06:02.435Z,100.00
2022-12-17T06:07:22.754Z,100.00
2022-12-17T06:08:42.717Z,100.00
2022-12-17T06:10:02.581Z,100.00
2022-12-17T06:11:22.525Z,100.00
2022-12-17T06:12:42.699Z,100.00
2022-12-17T06:14:03.383Z,100.00
2022-12-17T06:15:24.159Z,100.00
2022-12-17T06:16:44.152Z,100.00
2022-12-17T06:18:16.885Z,100.00
2022-12-17T06:19:37.143Z,100.00
2022-12-17T06:20:57.528Z,100.00
2022-12-17T06:22:37.415Z,100.00
2022-12-17T06:23:57.654Z,100.00
2022-12-17T06:25:18.019Z,100.00
2022-12-17T06:26:38.052Z,100.00
2022-12-17T06:27:57.975Z,100.00
2022-12-17T06:29:17.744Z,100.00
2022-12-17T06:30:38.146Z,100.00
2022-12-17T06:31:57.968Z,100.00
2022-12-17T06:33:29.815Z,100.00
2022-12-17T06:34:49.657Z,100.00
2022-12-17T06:36:12.026Z,100.00
2022-12-17T06:37:34.585Z,100.00
2022-12-17T06:38:54.459Z,100.00
2022-12-17T06:40:14.341Z,100.00
2022-12-17T06:41:34.314Z,100.00
2022-12-17T06:42:54.175Z,100.00
2022-12-17T06:44:14.106Z,100.00
2022-12-17T06:45:34.414Z,100.00
2022-12-17T06:46:54.511Z,100.00
2022-12-17T06:48:26.445Z,100.00
2022-12-17T06:49:46.459Z,100.00
2022-12-17T06:51:06.746Z,100.00
2022-12-17T06:52:26.716Z,100.00
2022-12-17T06:53:46.907Z,100.00
2022-12-17T06:55:06.941Z,100.00
2022-12-17T06:56:27.165Z,100.00
2022-12-17T06:57:50.302Z,100.00
2022-12-17T06:59:10.804Z,100.00
2022-12-17T07:00:31.355Z,100.00
2022-12-17T07:01:51.452Z,100.00
2022-12-17T07:03:16.109Z,100.00
2022-12-17T07:04:36.960Z,100.00
2022-12-17T07:05:56.902Z,100.00
2022-12-17T07:07:17.378Z,100.00
2022-12-17T07:08:37.279Z,100.00
2022-12-17T07:09:57.171Z,100.00
2022-12-17T07:11:20.735Z,100.00
2022-12-17T07:12:40.630Z,100.00
2022-12-17T07:14:00.581Z,100.00
2022-12-17T07:15:20.578Z,100.00
2022-12-17T07:16:41.123Z,100.00
2022-12-17T07:18:00.902Z,100.00
2022-12-17T07:19:26.790Z,100.00
2022-12-17T07:20:47.606Z,100.00
2022-12-17T07:22:07.845Z,100.00
2022-12-17T07:23:28.181Z,100.00
2022-12-17T07:24:48.264Z,100.00
2022-12-17T07:26:08.353Z,100.00
2022-12-17T07:27:28.634Z,100.00
2022-12-17T07:28:48.682Z,100.00
2022-12-17T07:30:08.623Z,100.00
2022-12-17T07:31:28.662Z,100.00
2022-12-17T07:32:48.796Z,100.00
2022-12-17T07:34:08.918Z,100.00
2022-12-17T07:35:28.769Z,100.00
2022-12-17T07:36:53.416Z,100.00
2022-12-17T07:38:18.663Z,100.00
2022-12-17T07:39:38.959Z,100.00
2022-12-17T07:40:59.055Z,100.00
2022-12-17T07:42:19.195Z,100.00
2022-12-17T07:43:39.485Z,100.00
2022-12-17T07:44:59.880Z,100.00
2022-12-17T07:46:20.321Z,100.00
2022-12-17T07:47:40.537Z,100.00
2022-12-17T07:49:00.522Z,100.00
2022-12-17T07:50:20.313Z,100.00
2022-12-17T07:51:40.284Z,100.00
2022-12-17T07:53:00.193Z,100.00
2022-12-17T07:54:20.043Z,100.00
2022-12-17T07:55:39.916Z,100.00
2022-12-17T07:56:59.827Z,100.00
2022-12-17T07:58:24.591Z,100.00
2022-12-17T07:59:44.445Z,100.00
2022-12-17T08:01:04.343Z,100.00
2022-12-17T08:02:24.516Z,100.00
2022-12-17T08:03:44.625Z,100.00
2022-12-17T08:05:04.881Z,100.00
2022-12-17T08:06:25.356Z,100.00
2022-12-17T08:07:45.459Z,100.00
2022-12-17T08:09:05.294Z,100.00
2022-12-17T08:10:26.009Z,100.00
2022-12-17T08:11:46.641Z,100.00
2022-12-17T08:13:18.325Z,100.00
2022-12-17T08:14:38.309Z,100.00
2022-12-17T08:15:58.332Z,100.00
2022-12-17T08:17:18.383Z,100.00
2022-12-17T08:18:38.873Z,100.00
2022-12-17T08:19:59.100Z,100.00
2022-12-17T08:21:19.168Z,100.00
2022-12-17T08:22:39.165Z,100.00
2022-12-17T08:23:58.985Z,100.00
2022-12-17T08:25:18.839Z,100.00
2022-12-17T08:26:42.035Z,100.00
2022-12-17T08:28:10.682Z,100.00
2022-12-17T08:29:31.252Z,100.00
2022-12-17T08:30:51.214Z,100.00
2022-12-17T08:32:11.220Z,100.00
2022-12-17T08:33:31.118Z,100.00
2022-12-17T08:34:51.269Z,100.00
2022-12-17T08:36:16.301Z,100.00
2022-12-17T08:37:36.042Z,99.76
2022-12-17T08:38:55.882Z,98.88
2022-12-17T08:40:16.270Z,98.56
2022-12-17T08:41:36.144Z,99.14
2022-12-17T08:42:55.983Z,99.01
2022-12-17T08:44:15.793Z,98.62
2022-12-17T08:45:37.684Z,97.75
2022-12-17T08:46:57.839Z,97.92
2022-12-17T08:48:25.343Z,97.58
2022-12-17T08:49:45.122Z,97.83
2022-12-17T08:51:04.861Z,96.84
2022-12-17T08:52:24.723Z,97.99
2022-12-17T08:53:45.110Z,98.12
2022-12-17T08:55:05.095Z,98.10
2022-12-17T08:56:25.572Z,98.91
2022-12-17T08:57:45.374Z,98.87
2022-12-17T08:59:05.364Z,98.52
2022-12-17T09:00:26.303Z,99.99
2022-12-17T09:01:46.528Z,96.73
2022-12-17T09:03:06.816Z,95.99
2022-12-17T09:04:27.332Z,97.29
2022-12-17T09:05:47.438Z,95.24
2022-12-17T09:07:07.403Z,94.15
2022-12-17T09:08:27.725Z,95.29
2022-12-17T09:09:47.726Z,92.92
2022-12-17T09:11:08.084Z,92.12
2022-12-17T09:12:28.502Z,93.60
2022-12-17T09:13:48.559Z,93.84
2022-12-17T09:15:08.750Z,94.86
2022-12-17T09:16:28.684Z,95.34
2022-12-17T09:17:48.697Z,94.82
2022-12-17T09:19:09.097Z,94.04
2022-12-17T09:20:29.783Z,94.29
2022-12-17T09:21:50.179Z,93.66
2022-12-17T09:23:10.103Z,93.85
2022-12-17T09:24:30.556Z,93.23
2022-12-17T09:25:53.730Z,94.05
2022-12-17T09:27:18.066Z,91.77
2022-12-17T09:28:37.899Z,90.67
2022-12-17T09:29:57.787Z,91.08
2022-12-17T09:31:20.850Z,92.02
2022-12-17T09:32:40.817Z,93.52
2022-12-17T09:34:00.540Z,93.02
2022-12-17T09:35:20.362Z,92.68
2022-12-17T09:36:40.228Z,92.13
2022-12-17T09:38:00.191Z,92.45
2022-12-17T09:39:20.615Z,92.81
2022-12-17T09:40:43.533Z,91.94
2022-12-17T09:42:11.276Z,93.07
2022-12-17T09:43:44.891Z,93.11
2022-12-17T09:45:16.493Z,93.94
2022-12-17T09:46:41.068Z,94.14
2022-12-17T09:48:22.597Z,93.79
2022-12-17T09:50:04.270Z,94.19
2022-12-17T09:51:24.272Z,94.90
2022-12-17T09:53:00.192Z,93.83
2022-12-17T09:54:20.056Z,94.77
2022-12-17T09:55:44.752Z,94.04
2022-12-17T09:57:23.031Z,94.13
2022-12-17T09:58:46.586Z,95.23
2022-12-17T10:00:06.993Z,94.39
2022-12-17T10:01:53.626Z,94.96
2022-12-17T10:03:14.397Z,94.62
2022-12-17T10:04:38.744Z,95.16
2022-12-17T10:06:00.662Z,94.81
2022-12-17T10:07:22.038Z,94.72
2022-12-17T10:08:42.284Z,95.27
2022-12-17T10:10:04.317Z,95.89
2022-12-17T10:11:37.912Z,95.18
2022-12-17T10:12:58.126Z,95.24
2022-12-17T10:14:18.025Z,95.75
2022-12-17T10:15:37.865Z,95.96
2022-12-17T10:17:11.509Z,95.93
2022-12-17T10:18:34.293Z,95.57
2022-12-17T10:19:58.247Z,94.61
2022-12-17T10:21:21.311Z,95.12
2022-12-17T10:22:41.615Z,94.97
2022-12-17T10:24:01.818Z,94.26
2022-12-17T10:25:44.445Z,93.68
2022-12-17T10:27:07.226Z,94.73
2022-12-17T10:28:35.827Z,94.15
2022-12-17T10:29:56.223Z,95.35
2022-12-17T10:31:17.609Z,95.97
2022-12-17T10:32:43.326Z,96.25
2022-12-17T10:34:04.226Z,95.75
2022-12-17T10:35:45.076Z,95.60
2022-12-17T10:37:09.046Z,95.90
2022-12-17T10:38:39.348Z,96.43
2022-12-17T10:40:00.322Z,96.49
2022-12-17T10:41:20.834Z,95.73
2022-12-17T10:42:57.286Z,96.12
2022-12-17T10:44:17.138Z,95.95
2022-12-17T10:45:47.194Z,96.38
2022-12-17T10:47:15.708Z,96.23
2022-12-17T10:48:53.983Z,95.99
2022-12-17T10:50:19.290Z,96.35
2022-12-17T10:51:43.531Z,96.52
2022-12-17T10:53:05.534Z,96.57
2022-12-17T10:54:49.300Z,97.27
2022-12-17T10:56:13.030Z,97.17
2022-12-17T10:57:42.179Z,96.80
2022-12-17T10:59:07.952Z,96.83
2022-12-17T11:00:58.589Z,96.40
2022-12-17T11:02:19.081Z,96.55
2022-12-17T11:03:45.661Z,96.50
2022-12-17T11:05:12.111Z,96.47
2022-12-17T11:06:42.269Z,96.28
2022-12-17T11:08:03.343Z,95.91
2022-12-17T11:09:35.102Z,95.82
2022-12-17T11:11:01.067Z,95.74
2022-12-17T11:12:30.102Z,94.88
2022-12-17T11:13:55.234Z,93.79
2022-12-17T11:15:21.547Z,93.75
2022-12-17T11:16:49.549Z,93.78
2022-12-17T11:18:29.433Z,92.26
2022-12-17T11:20:13.287Z,92.88
2022-12-17T11:21:40.302Z,92.86
2022-12-17T11:23:14.334Z,93.05
2022-12-17T11:24:44.283Z,92.69
2022-12-17T11:26:22.465Z,92.35
2022-12-17T11:27:47.784Z,92.16
2022-12-17T11:29:08.155Z,92.19
2022-12-17T11:30:33.007Z,92.08
2022-12-17T11:31:55.968Z,91.62
2022-12-17T11:33:22.180Z,91.71
2022-12-17T11:35:04.438Z,91.19
2022-12-17T11:36:38.659Z,92.32
2022-12-17T11:38:02.231Z,91.83
2022-12-17T11:39:27.806Z,91.54
2022-12-17T11:41:00.950Z,91.51
2022-12-17T11:42:23.851Z,91.59
2022-12-17T11:44:18.826Z,92.01
2022-12-17T11:45:54.570Z,92.21
2022-12-17T11:47:34.187Z,91.96
2022-12-17T11:49:42.038Z,92.00
2022-12-17T11:51:23.943Z,91.99
2022-12-17T11:52:55.875Z,93.12
2022-12-17T11:54:44.656Z,92.41
2022-12-17T11:56:34.963Z,92.69
2022-12-17T11:58:29.178Z,92.63
2022-12-17T11:59:59.463Z,92.21
2022-12-17T12:01:22.458Z,92.71
2022-12-17T12:03:17.369Z,92.06
2022-12-17T12:04:43.734Z,92.86
2022-12-17T12:06:16.284Z,92.39
2022-12-17T12:07:56.582Z,92.82
2022-12-17T12:09:28.816Z,92.52
2022-12-17T12:11:26.900Z,92.35
2022-12-17T12:13:11.792Z,92.24
2022-12-17T12:14:50.795Z,92.35
2022-12-17T12:16:16.750Z,94.33
2022-12-17T12:17:43.037Z,95.88
2022-12-17T12:19:15.116Z,97.20
2022-12-17T12:21:02.038Z,97.71
2022-12-17T12:23:00.397Z,97.94
2022-12-17T12:25:01.304Z,98.38
2022-12-17T12:26:21.198Z,98.80
2022-12-17T12:28:27.303Z,98.11
2022-12-17T12:30:14.955Z,99.48
2022-12-17T12:31:53.869Z,99.93
2022-12-17T12:33:36.069Z,99.76
2022-12-17T12:34:57.463Z,100.00
2022-12-17T12:36:21.017Z,100.00
2022-12-17T12:37:42.804Z,100.00
2022-12-17T12:39:03.642Z,99.79
2022-12-17T12:40:36.087Z,100.00
2022-12-17T12:42:11.469Z,99.89
2022-12-17T12:43:44.975Z,100.00
2022-12-17T12:45:23.684Z,100.00
2022-12-17T12:47:03.320Z,100.00
2022-12-17T12:48:51.668Z,100.00
2022-12-17T12:50:20.749Z,100.00
2022-12-17T12:51:45.686Z,100.00
2022-12-17T12:53:06.550Z,100.00
2022-12-17T12:54:49.410Z,100.00
2022-12-17T12:56:09.579Z,100.00
2022-12-17T12:57:45.858Z,100.00
2022-12-17T12:59:06.270Z,100.00
2022-12-17T13:00:40.761Z,100.00
2022-12-17T13:02:01.192Z,100.00
2022-12-17T13:03:39.759Z,100.00
2022-12-17T13:05:02.012Z,100.00
2022-12-17T13:06:03.920Z,100.00
2022-12-17T13:07:05.872Z,100.00
2022-12-17T13:08:07.348Z,100.00
2022-12-17T13:09:20.901Z,100.00
2022-12-17T13:10:30.027Z,100.00
2022-12-17T13:11:38.178Z,100.00
2022-12-17T13:12:47.351Z,100.00
2022-12-17T13:13:56.057Z,100.00
2022-12-17T13:15:07.061Z,100.00
2022-12-17T13:16:50.337Z,100.00
2022-12-17T13:18:02.129Z,100.00
2022-12-17T13:19:18.433Z,100.00
2022-12-17T13:20:34.500Z,100.00
2022-12-17T13:21:36.089Z,100.00
2022-12-17T13:22:48.738Z,100.00
2022-12-17T13:23:50.281Z,100.00
2022-12-17T13:24:54.877Z,100.00
2022-12-17T13:26:43.746Z,100.00
2022-12-17T13:27:45.902Z,100.00
2022-12-17T13:29:01.948Z,100.00
2022-12-17T13:30:22.126Z,100.00
2022-12-17T13:31:30.379Z,100.00
2022-12-17T13:33:08.744Z,100.00
2022-12-17T13:34:20.386Z,100.00
2022-12-17T13:35:29.485Z,100.00
2022-12-17T13:36:49.991Z,100.00
2022-12-17T13:38:05.604Z,100.00
2022-12-17T13:39:10.047Z,100.00
2022-12-17T13:40:46.894Z,100.00
2022-12-17T13:41:53.872Z,100.00
2022-12-17T13:42:55.589Z,100.00
2022-12-17T13:44:01.900Z,100.00
2022-12-17T13:45:04.046Z,100.00
2022-12-17T13:46:05.812Z,100.00
2022-12-17T13:47:23.847Z,100.00
2022-12-17T13:48:28.043Z,100.00
2022-12-17T13:49:30.903Z,100.00
2022-12-17T13:50:34.307Z,100.00
2022-12-17T13:51:37.083Z,100.00
2022-12-17T13:52:38.622Z,100.00
2022-12-17T13:53:40.193Z,100.00
2022-12-17T13:54:41.762Z,100.00
2022-12-17T13:55:50.891Z,100.00
2022-12-17T13:56:53.352Z,100.00
2022-12-17T13:57:55.303Z,100.00
2022-12-17T13:59:03.126Z,100.00
2022-12-17T14:00:20.150Z,100.00
2022-12-17T14:01:22.105Z,100.00
2022-12-17T14:02:28.258Z,100.00
2022-12-17T14:03:43.412Z,100.00
2022-12-17T14:04:53.654Z,100.00
2022-12-17T14:05:55.994Z,100.00
2022-12-17T14:07:00.861Z,100.00
2022-12-17T14:08:04.613Z,100.00
2022-12-17T14:09:06.686Z,100.00
2022-12-17T14:10:17.077Z,100.00
2022-12-17T14:11:37.148Z,100.00
2022-12-17T14:12:39.358Z,100.00
2022-12-17T14:13:43.638Z,100.00
2022-12-17T14:14:48.405Z,100.00
2022-12-17T14:15:52.845Z,100.00
2022-12-17T14:16:55.171Z,100.00
2022-12-17T14:17:58.812Z,100.00
2022-12-17T14:19:00.606Z,100.00
2022-12-17T14:20:11.195Z,100.00
2022-12-17T14:21:13.171Z,100.00
2022-12-17T14:22:26.556Z,100.00
2022-12-17T14:23:33.340Z,100.00
2022-12-17T14:24:34.974Z,100.00
2022-12-17T14:25:39.738Z,100.00
2022-12-17T14:26:56.805Z,100.00
2022-12-17T14:28:04.665Z,100.00
2022-12-17T14:29:13.069Z,100.00
2022-12-17T14:30:30.995Z,100.00
2022-12-17T14:31:32.556Z,100.00
2022-12-17T14:32:36.473Z,100.00
2022-12-17T14:33:38.333Z,100.00
2022-12-17T14:34:43.049Z,100.00
2022-12-17T14:35:52.164Z,100.00
2022-12-17T14:36:57.889Z,100.00
2022-12-17T14:37:59.696Z,100.00
2022-12-17T14:39:04.394Z,100.00
2022-12-17T14:40:06.867Z,100.00
2022-12-17T14:41:32.055Z,100.00
2022-12-17T14:42:36.567Z,100.00
2022-12-17T14:43:38.145Z,100.00
2022-12-17T14:44:50.822Z,100.00
2022-12-17T14:46:16.185Z,100.00
2022-12-17T14:47:22.873Z,100.00
2022-12-17T14:48:49.090Z,100.00
2022-12-17T14:49:56.614Z,100.00
2022-12-17T14:50:58.170Z,100.00
2022-12-17T14:52:00.115Z,100.00
2022-12-17T14:53:22.997Z,100.00
2022-12-17T14:54:25.851Z,100.00
2022-12-17T14:55:30.847Z,100.00
2022-12-17T14:56:32.477Z,100.00
2022-12-17T14:57:34.024Z,100.00
2022-12-17T14:58:45.462Z,100.00
2022-12-17T14:59:47.194Z,100.00
2022-12-17T15:00:50.675Z,100.00
2022-12-17T15:02:00.456Z,100.00
2022-12-17T15:03:02.301Z,100.00
2022-12-17T15:04:04.137Z,100.00
2022-12-17T15:05:05.951Z,100.00
2022-12-17T15:06:10.346Z,100.00
2022-12-17T15:07:18.097Z,100.00
2022-12-17T15:08:21.441Z,100.00
2022-12-17T15:09:23.048Z,100.00
2022-12-17T15:10:24.649Z,100.00
2022-12-17T15:11:26.188Z,100.00
2022-12-17T15:12:27.885Z,100.00
2022-12-17T15:13:29.428Z,100.00
2022-12-17T15:14:30.971Z,100.00
2022-12-17T15:15:32.476Z,100.00
2022-12-17T15:16:34.091Z,100.00
2022-12-17T15:17:35.666Z,100.00
2022-12-17T15:18:37.715Z,100.00
2022-12-17T15:19:39.486Z,100.00
2022-12-17T15:20:41.210Z,100.00
2022-12-17T15:21:42.766Z,100.00
2022-12-17T15:22:44.816Z,100.00
2022-12-17T15:23:47.541Z,100.00
2022-12-17T15:24:49.437Z,100.00
2022-12-17T15:25:52.620Z,100.00
2022-12-17T15:26:54.738Z,100.00
2022-12-17T15:27:56.445Z,100.00
2022-12-17T15:28:58.038Z,100.00
2022-12-17T15:29:59.592Z,100.00
2022-12-17T15:31:01.281Z,100.00
2022-12-17T15:32:03.478Z,100.00
2022-12-17T15:33:05.072Z,100.00
2022-12-17T15:34:06.638Z,100.00
2022-12-17T15:35:10.179Z,100.00
2022-12-17T15:36:12.712Z,100.00
2022-12-17T15:37:17.021Z,100.00
2022-12-17T15:38:20.270Z,100.00
2022-12-17T15:39:21.767Z,100.00
2022-12-17T15:40:23.355Z,100.00
2022-12-17T15:41:43.435Z,100.00
2022-12-17T15:43:06.332Z,100.00
2022-12-17T15:44:08.517Z,100.00
2022-12-17T15:45:10.213Z,100.00
2022-12-17T15:46:12.531Z,100.00
2022-12-17T15:47:14.114Z,100.00
2022-12-17T15:48:23.411Z,100.00
2022-12-17T15:49:24.950Z,100.00
2022-12-17T15:50:27.730Z,100.00
2022-12-17T15:51:29.633Z,100.00
2022-12-17T15:52:31.302Z,100.00
2022-12-17T15:53:32.887Z,100.00
2022-12-17T15:54:34.497Z,100.00
2022-12-17T15:55:37.218Z,100.00
2022-12-17T15:56:38.954Z,100.00
2022-12-17T15:57:40.623Z,100.00
2022-12-17T15:58:42.140Z,100.00
2022-12-17T15:59:43.699Z,100.00
2022-12-17T16:00:45.213Z,100.00
2022-12-17T16:01:46.947Z,100.00
2022-12-17T16:02:49.674Z,100.00
2022-12-17T16:03:51.405Z,100.00
2022-12-17T16:04:53.016Z,100.00
2022-12-17T16:05:54.574Z,100.00
2022-12-17T16:06:56.163Z,100.00
2022-12-17T16:08:02.205Z,100.00
2022-12-17T16:09:04.030Z,100.00
2022-12-17T16:10:06.957Z,100.00
2022-12-17T16:11:10.363Z,100.00
2022-12-17T16:12:11.905Z,100.00
2022-12-17T16:13:13.481Z,100.00
2022-12-17T16:14:15.439Z,100.00
2022-12-17T16:15:17.034Z,100.00
2022-12-17T16:16:18.641Z,100.00
2022-12-17T16:17:20.900Z,100.00
2022-12-17T16:18:23.689Z,100.00
2022-12-17T16:19:25.237Z,100.00
2022-12-17T16:20:26.742Z,100.00
2022-12-17T16:21:28.706Z,100.00
2022-12-17T16:22:30.358Z,100.00
2022-12-17T16:23:32.343Z,100.00
2022-12-17T16:24:33.959Z,100.00
2022-12-17T16:25:35.476Z,100.00
2022-12-17T16:26:37.496Z,100.00
2022-12-17T16:27:41.921Z,100.00
2022-12-17T16:28:43.487Z,100.00
2022-12-17T16:29:46.867Z,100.00
2022-12-17T16:31:05.495Z,100.00
2022-12-17T16:32:07.143Z,100.00
2022-12-17T16:33:08.658Z,100.00
2022-12-17T16:34:11.441Z,100.00
2022-12-17T16:35:14.132Z,100.00
2022-12-17T16:36:18.264Z,100.00
2022-12-17T16:37:19.865Z,100.00